METAR Data
IDs: Format: Raw Decoded Include TAF

Data at: 2110 UTC 19 May 2019

KSLB 192055Z AUTO 32015G21KT 6SM BR 09/09 A2980 RMK AO2
KSLB 192035Z AUTO 31018KT 10SM 10/09 A2979 RMK AO2
KSLB 192015Z AUTO 31012G18KT 3SM BR 09/09 A2979 RMK AO2
KSLB 191955Z AUTO 31014KT 6SM BR 09/09 A2978 RMK AO2
KSLB 191935Z AUTO 32012G18KT 9SM 09/09 A2977 RMK AO2
KSLB 191915Z AUTO 31013KT 1 1/2SM BR CLR 09/09 A2976 RMK AO2
KSLB 191855Z AUTO 30016KT 1SM RA CLR 09/08 A2975 RMK AO2
KSLB 191835Z AUTO 30014G21KT 1 1/2SM BR BKN013 BKN017 09/09 A2975 RMK AO2
KSLB 191815Z AUTO 29015KT 7SM 09/09 A2974 RMK AO2
KSLB 191755Z AUTO 30016KT 8SM 09/09 A2973 RMK AO2
KSLB 191735Z AUTO 32013KT 9SM 09/09 A2972 RMK AO2
KSLB 191715Z AUTO 32011KT 10SM 10/09 A2971 RMK AO2
KSLB 191655Z AUTO 32013KT 10SM 10/09 A2970 RMK AO2
KSLB 191635Z AUTO 34015KT 10SM 10/09 A2969 RMK AO2
KSLB 191615Z AUTO 32012G17KT 10SM 10/10 A2968 RMK AO2
KSLB 191555Z AUTO 33014KT 10SM 10/10 A2966 RMK AO2
KSLB 191535Z AUTO 32015KT 10SM 10/10 A2966 RMK AO2
KSLB 191515Z AUTO 32016KT 10SM 09/09 A2966 RMK AO2
KSLB 191455Z AUTO 33014G19KT 7SM 09/09 A2966 RMK AO2
KSLB 191435Z AUTO 32013G19KT 3SM BR FEW013 08/08 A2966 RMK AO2
KSLB 191415Z AUTO 32015KT 1 1/4SM BR CLR 09/09 A2965 RMK AO2
KSLB 191355Z AUTO 32012G19KT 1SM RA CLR 09/08 A2965 RMK AO2
KSLB 191335Z AUTO 31013KT 1SM -RA FEW006 SCT013 09/09 A2964 RMK AO2
KSLB 191315Z AUTO 32010KT 3SM -RA CLR 09/09 A2964 RMK AO2
KSLB 191255Z AUTO 32009KT 6SM BR CLR 09/09 A2962 RMK AO2 P0001
KSLB 191235Z AUTO 36009KT 1 1/4SM BR CLR 09/09 A2961 RMK AO2
KSLB 191215Z AUTO 36009KT 2SM -RA FEW009 FEW013 09/09 A2960 RMK AO2
KSLB 191155Z AUTO 35010KT 3/4SM BR VV005 09/09 A2960 RMK AO2
KSLB 191135Z AUTO 35012KT 1SM BR BKN003 09/09 A2959 RMK AO2
KSLB 191115Z AUTO 35010KT 1 3/4SM BR OVC005 09/09 A2959 RMK AO2
KSLB 191055Z AUTO 36010KT 6SM BR OVC006 10/10 A2958 RMK AO2
KSLB 191035Z AUTO 35011KT 10SM BKN005 OVC012 10/10 A2957 RMK AO2
KSLB 191015Z AUTO 36010KT 10SM BKN006 OVC012 10/10 A2957 RMK AO2
KSLB 190955Z AUTO 02010KT 10SM SCT005 OVC012 10/10 A2956 RMK AO2 P0004
KSLB 190935Z AUTO 01010KT 5SM BR SCT005 BKN011 11/11 A2956 RMK AO2
KSLB 190915Z AUTO 01010KT 3SM RA BKN006 11/11 A2956 RMK AO2
KSLB 190855Z AUTO 35006KT 5SM -RA OVC005 12/12 A2956 RMK AO2
KSLB 190835Z AUTO 33005KT 6SM BR BKN005 OVC013 12/12 A2956 RMK AO2
KSLB 190815Z AUTO 30004KT 6SM BR OVC012 12/12 A2955 RMK AO2
KSLB 190755Z AUTO 35006KT 6SM BR OVC013 12/12 A2955 RMK AO2
KSLB 190735Z AUTO 36006KT 6SM BR OVC011 12/12 A2956 RMK AO2
KSLB 190715Z AUTO 35006KT 6SM BR OVC011 12/12 A2957 RMK AO2
KSLB 190655Z AUTO 34007KT 6SM BR FEW005 BKN011 12/12 A2957 RMK AO2 P0001
KSLB 190635Z AUTO 01009G14KT 5SM -RA SCT005 BKN011 12/12 A2956 RMK AO2
KSLB 190615Z AUTO 02011KT 7SM FEW006 BKN012 OVC085 12/12 A2956 RMK AO2
KSLB 190555Z AUTO 35010KT 7SM BKN011 BKN045 OVC080 13/13 A2956 RMK AO2
KSLB 190535Z AUTO 34010KT 7SM BKN010 BKN013 OVC050 14/13 A2957 RMK AO2
KSLB 190515Z AUTO 36011KT 10SM SCT009 BKN013 OVC045 15/15 A2958 RMK AO2
KSLB 190455Z AUTO 32008KT 10SM BKN013 BKN019 OVC041 15/15 A2959 RMK AO2
KSLB 190435Z AUTO 32008KT 10SM BKN014 BKN018 OVC041 15/15 A2960 RMK AO2
KSLB 190415Z AUTO 31009KT 10SM SCT015 BKN042 OVC100 15/15 A2961 RMK AO2
KSLB 190355Z AUTO 32009KT 10SM BKN022 BKN028 OVC100 15/15 A2960 RMK AO2
KSLB 190335Z AUTO 32010KT 10SM SCT019 BKN026 OVC100 15/15 A2958 RMK AO2
KSLB 190315Z AUTO 30009KT 10SM FEW055 FEW075 OVC100 15/15 A2958 RMK AO2
KSLB 190255Z AUTO 32008KT 10SM -RA FEW047 BKN060 OVC095 15/15 A2958 RMK AO2
KSLB 190235Z AUTO 29007KT 8SM -DZ FEW047 BKN060 OVC085 15/15 A2957 RMK AO2
KSLB 190215Z AUTO 27007KT 6SM -RA FEW039 SCT055 BKN065 15/15 A2958 RMK AO2
KSLB 190155Z AUTO 19009KT 4SM BR FEW029 SCT043 BKN050 15/14 A2959 RMK AO2 P0002
KSLB 190135Z AUTO 14010KT 3SM -RA FEW028 BKN039 BKN050 16/14 A2960 RMK AO2
KSLB 190115Z AUTO 17015G25KT 1 3/4SM -RA SCT025 BKN038 OVC075 15/15 A2959 RMK AO2
KSLB 190055Z AUTO 18013KT 1 1/2SM +RA SCT025 BKN030 SCT040 16/16 A2959 RMK AO2 P0015
KSLB 190035Z AUTO 19012G20KT 1 1/4SM RA BKN009 BKN028 OVC036 16/16 A2959 RMK AO2
KSLB 190015Z AUTO 15018KT 3SM BR SCT008 BKN014 OVC034 17/17 A2957 RMK AO2
KSLB 182355Z AUTO VRB04KT 10SM FEW022 SCT027 BKN035 19/17 A2958 RMK AO2
KSLB 182335Z AUTO 33004KT 10SM SCT070 19/16 A2957 RMK AO2
KSLB 182315Z AUTO 33006KT 10SM CLR 19/16 A2956 RMK AO2
KSLB 182255Z AUTO 32006KT 10SM CLR 20/16 A2956 RMK AO2
KSLB 182235Z AUTO 30008G14KT 10SM CLR 20/16 A2956 RMK AO2
KSLB 182215Z AUTO 30009KT 10SM CLR 21/15 A2955 RMK AO2
KSLB 182155Z AUTO 29010KT 10SM CLR 21/15 A2957 RMK AO2
KSLB 182135Z AUTO 26010KT 10SM CLR 21/15 A2957 RMK AO2
KSLB 182115Z AUTO 27008KT 10SM FEW040 22/15 A2958 RMK AO2
KSLB 182055Z AUTO 28009KT 10SM SCT041 22/15 A2958 RMK AO2
KSLB 182035Z AUTO 26010KT 230V290 10SM FEW041 22/15 A2959 RMK AO2
KSLB 182015Z AUTO 29011KT 10SM FEW041 22/16 A2959 RMK AO2
KSLB 181955Z AUTO 28013KT 10SM 23/16 A2956 RMK AO2
KSLB 181935Z AUTO 26013G22KT 10SM 24/15 A2954 RMK AO2
KSLB 181915Z AUTO 24015G21KT 10SM 24/15 A2954 RMK AO2
KSLB 181855Z AUTO 23017G28KT 10SM 24/15 A2955 RMK AO2
KSLB 181835Z AUTO 23017G25KT 10SM 24/15 A2953 RMK AO2
KSLB 181815Z AUTO 25021KT 10SM 24/15 A2952 RMK AO2
KSLB 181755Z AUTO 23019G27KT 10SM 24/15 A2953 RMK AO2
KSLB 181735Z AUTO 23026G31KT 10SM 24/15 A2953 RMK AO2
KSLB 181715Z AUTO 23017G27KT 10SM 24/16 A2954 RMK AO2
KSLB 181655Z AUTO 23019G26KT 10SM CLR 23/15 A2955 RMK AO2
KSLB 181635Z AUTO 22021G26KT 10SM CLR 23/15 A2954 RMK AO2
KSLB 181615Z AUTO 21015KT 10SM CLR 23/16 A2953 RMK AO2
KSLB 181555Z AUTO 22012KT 10SM CLR 22/16 A2952 RMK AO2
KSLB 181535Z AUTO 22010G16KT 10SM CLR 21/16 A2953 RMK AO2
KSLB 181515Z AUTO 23009KT 10SM CLR 21/15 A2952 RMK AO2
KSLB 181455Z AUTO 24008KT 10SM CLR 20/16 A2953 RMK AO2
KSLB 181435Z AUTO 23008KT 10SM CLR 20/17 A2954 RMK AO2
KSLB 181415Z AUTO 25008KT 10SM CLR 18/17 A2952 RMK AO2
KSLB 181355Z AUTO 27006KT 10SM CLR 18/16 A2949 RMK AO2
KSLB 181335Z AUTO 26007KT 10SM CLR 17/16 A2951 RMK AO2
KSLB 181315Z AUTO 27016KT 10SM CLR 17/17 A2954 RMK AO2
KSLB 181255Z AUTO 15013G19KT 10SM CLR 17/17 A2947 RMK AO2
KSLB 181235Z AUTO 13017KT 10SM CLR 17/17 A2946 RMK AO2
KSLB 181215Z AUTO 12017G22KT 9SM 17/17 A2946 RMK AO2
KSLB 181155Z AUTO 13011KT A2949 RMK AO2 PWINO
KSLB 181135Z AUTO 14012KT 7SM CLR 17/17 A2951 RMK AO2
KSLB 181115Z AUTO 13006KT 7SM -RA FEW055 FEW070 FEW100 17/17 A2952 RMK AO2
KSLB 181055Z AUTO 17007KT 9SM -RA FEW036 FEW047 SCT080 17/17 A2955 RMK AO2 P0001
KSLB 181035Z AUTO 19005KT 9SM SCT032 BKN038 BKN048 18/18 A2956 RMK AO2
KSLB 181015Z AUTO 18009KT 18/18 A2957 RMK AO2
KSLB 180955Z AUTO 00000KT 10SM FEW026 BKN031 OVC049 18/18 A2954 RMK AO2
KSLB 180935Z AUTO 27014G20KT 250V310 9SM SCT038 BKN050 BKN055 17/16 A2957 RMK AO2
KSLB 180915Z AUTO 14010KT 8SM FEW060 BKN100 BKN120 16/16 A2954 RMK AO2